sensor_id;sensor_type;location;lat;lon;timestamp;P1;durP1;ratioP1;P2;durP2;ratioP2
14169;SDS011;63889;50.596;8.690;2022-11-11T00:01:16;10.20;;;5.45;;
14169;SDS011;63889;50.596;8.690;2022-11-11T00:03:42;14.98;;;5.38;;
14169;SDS011;63889;50.596;8.690;2022-11-11T00:06:09;13.30;;;5.60;;
14169;SDS011;63889;50.596;8.690;2022-11-11T00:08:36;10.85;;;4.78;;
14169;SDS011;63889;50.596;8.690;2022-11-11T00:11:02;12.02;;;5.70;;
14169;SDS011;63889;50.596;8.690;2022-11-11T00:13:30;21.20;;;6.78;;
14169;SDS011;63889;50.596;8.690;2022-11-11T00:16:30;24.25;;;7.03;;
14169;SDS011;63889;50.596;8.690;2022-11-11T00:18:49;26.98;;;9.00;;
14169;SDS011;63889;50.596;8.690;2022-11-11T00:21:33;27.67;;;6.65;;
14169;SDS011;63889;50.596;8.690;2022-11-11T00:24:28;41.15;;;9.88;;
14169;SDS011;63889;50.596;8.690;2022-11-11T00:27:13;40.85;;;9.25;;
14169;SDS011;63889;50.596;8.690;2022-11-11T00:29:39;29.38;;;9.52;;
14169;SDS011;63889;50.596;8.690;2022-11-11T00:32:06;38.85;;;9.63;;
14169;SDS011;63889;50.596;8.690;2022-11-11T00:34:48;28.98;;;10.23;;
14169;SDS011;63889;50.596;8.690;2022-11-11T00:37:33;33.03;;;8.73;;
14169;SDS011;63889;50.596;8.690;2022-11-11T00:39:59;32.97;;;8.73;;
14169;SDS011;63889;50.596;8.690;2022-11-11T00:42:25;33.80;;;10.18;;
14169;SDS011;63889;50.596;8.690;2022-11-11T00:44:51;38.25;;;10.48;;
14169;SDS011;63889;50.596;8.690;2022-11-11T00:47:16;49.60;;;10.73;;
14169;SDS011;63889;50.596;8.690;2022-11-11T00:50:01;48.65;;;11.73;;
14169;SDS011;63889;50.596;8.690;2022-11-11T00:52:46;89.18;;;12.38;;
14169;SDS011;63889;50.596;8.690;2022-11-11T00:55:12;71.95;;;11.48;;
14169;SDS011;63889;50.596;8.690;2022-11-11T00:57:39;45.53;;;10.48;;
14169;SDS011;63889;50.596;8.690;2022-11-11T01:00:05;51.85;;;10.77;;
14169;SDS011;63889;50.596;8.690;2022-11-11T01:02:31;24.38;;;9.48;;
14169;SDS011;63889;50.596;8.690;2022-11-11T01:04:57;29.25;;;8.90;;
14169;SDS011;63889;50.596;8.690;2022-11-11T01:07:22;33.60;;;9.82;;
14169;SDS011;63889;50.596;8.690;2022-11-11T01:09:48;36.55;;;9.50;;
14169;SDS011;63889;50.596;8.690;2022-11-11T01:12:14;25.17;;;9.82;;
14169;SDS011;63889;50.596;8.690;2022-11-11T01:14:39;29.70;;;10.20;;
14169;SDS011;63889;50.596;8.690;2022-11-11T01:17:05;31.48;;;10.27;;
14169;SDS011;63889;50.596;8.690;2022-11-11T01:19:31;36.67;;;10.18;;
14169;SDS011;63889;50.596;8.690;2022-11-11T01:21:57;29.52;;;9.90;;
14169;SDS011;63889;50.596;8.690;2022-11-11T01:24:23;38.65;;;10.38;;
14169;SDS011;63889;50.596;8.690;2022-11-11T01:26:48;81.30;;;13.07;;
14169;SDS011;63889;50.596;8.690;2022-11-11T01:29:14;44.10;;;10.80;;
14169;SDS011;63889;50.596;8.690;2022-11-11T01:31:40;44.60;;;10.15;;
14169;SDS011;63889;50.596;8.690;2022-11-11T01:34:05;50.10;;;9.93;;
14169;SDS011;63889;50.596;8.690;2022-11-11T01:36:31;58.08;;;8.85;;
14169;SDS011;63889;50.596;8.690;2022-11-11T01:38:57;40.63;;;8.88;;
14169;SDS011;63889;50.596;8.690;2022-11-11T01:41:26;42.40;;;9.80;;
14169;SDS011;63889;50.596;8.690;2022-11-11T01:43:56;37.30;;;10.10;;
14169;SDS011;63889;50.596;8.690;2022-11-11T01:46:35;38.72;;;10.73;;
14169;SDS011;63889;50.596;8.690;2022-11-11T01:54:34;15.95;;;7.07;;
14169;SDS011;63889;50.596;8.690;2022-11-11T01:57:29;35.45;;;10.18;;
14169;SDS011;63889;50.596;8.690;2022-11-11T02:00:08;21.50;;;9.40;;
14169;SDS011;63889;50.596;8.690;2022-11-11T02:02:43;34.95;;;10.95;;
14169;SDS011;63889;50.596;8.690;2022-11-11T02:05:10;54.53;;;10.80;;
14169;SDS011;63889;50.596;8.690;2022-11-11T02:07:56;35.65;;;9.95;;
14169;SDS011;63889;50.596;8.690;2022-11-11T02:10:25;38.95;;;9.73;;
14169;SDS011;63889;50.596;8.690;2022-11-11T02:12:52;39.00;;;11.50;;
14169;SDS011;63889;50.596;8.690;2022-11-11T02:15:36;47.22;;;9.40;;
14169;SDS011;63889;50.596;8.690;2022-11-11T02:18:02;25.15;;;9.40;;
14169;SDS011;63889;50.596;8.690;2022-11-11T02:20:29;58.00;;;10.07;;
14169;SDS011;63889;50.596;8.690;2022-11-11T02:25:25;49.67;;;9.32;;
14169;SDS011;63889;50.596;8.690;2022-11-11T02:27:55;27.20;;;8.95;;
14169;SDS011;63889;50.596;8.690;2022-11-11T02:30:24;50.90;;;10.27;;
14169;SDS011;63889;50.596;8.690;2022-11-11T02:32:50;25.65;;;10.25;;
14169;SDS011;63889;50.596;8.690;2022-11-11T02:35:18;46.03;;;10.40;;
14169;SDS011;63889;50.596;8.690;2022-11-11T02:37:50;26.33;;;9.63;;
14169;SDS011;63889;50.596;8.690;2022-11-11T02:40:21;31.00;;;8.85;;
14169;SDS011;63889;50.596;8.690;2022-11-11T02:43:26;37.03;;;10.25;;
14169;SDS011;63889;50.596;8.690;2022-11-11T02:45:52;51.67;;;8.68;;
14169;SDS011;63889;50.596;8.690;2022-11-11T02:48:18;37.90;;;9.52;;
14169;SDS011;63889;50.596;8.690;2022-11-11T02:50:44;32.03;;;9.23;;
14169;SDS011;63889;50.596;8.690;2022-11-11T02:53:10;39.20;;;10.60;;
14169;SDS011;63889;50.596;8.690;2022-11-11T02:55:35;50.80;;;9.88;;
14169;SDS011;63889;50.596;8.690;2022-11-11T02:58:01;20.63;;;8.20;;
14169;SDS011;63889;50.596;8.690;2022-11-11T03:00:26;22.27;;;7.88;;
14169;SDS011;63889;50.596;8.690;2022-11-11T03:02:52;21.10;;;7.65;;
14169;SDS011;63889;50.596;8.690;2022-11-11T03:05:17;15.27;;;7.30;;
14169;SDS011;63889;50.596;8.690;2022-11-11T03:07:43;23.20;;;9.10;;
14169;SDS011;63889;50.596;8.690;2022-11-11T03:10:09;32.95;;;8.60;;
14169;SDS011;63889;50.596;8.690;2022-11-11T03:12:34;49.60;;;10.68;;
14169;SDS011;63889;50.596;8.690;2022-11-11T03:15:00;25.38;;;8.98;;
14169;SDS011;63889;50.596;8.690;2022-11-11T03:17:25;106.65;;;12.63;;
14169;SDS011;63889;50.596;8.690;2022-11-11T03:20:03;44.92;;;10.45;;
14169;SDS011;63889;50.596;8.690;2022-11-11T03:23:08;56.15;;;11.38;;
14169;SDS011;63889;50.596;8.690;2022-11-11T03:25:40;35.75;;;10.10;;
14169;SDS011;63889;50.596;8.690;2022-11-11T03:30:32;34.05;;;9.05;;
14169;SDS011;63889;50.596;8.690;2022-11-11T03:32:58;29.67;;;9.73;;
14169;SDS011;63889;50.596;8.690;2022-11-11T03:35:24;22.95;;;9.05;;
14169;SDS011;63889;50.596;8.690;2022-11-11T03:37:50;45.38;;;10.40;;
14169;SDS011;63889;50.596;8.690;2022-11-11T03:40:34;54.15;;;10.95;;
14169;SDS011;63889;50.596;8.690;2022-11-11T03:42:59;34.10;;;10.10;;
14169;SDS011;63889;50.596;8.690;2022-11-11T03:45:25;49.58;;;10.90;;
14169;SDS011;63889;50.596;8.690;2022-11-11T03:47:50;23.67;;;9.70;;
14169;SDS011;63889;50.596;8.690;2022-11-11T03:50:16;39.28;;;10.30;;
14169;SDS011;63889;50.596;8.690;2022-11-11T03:52:42;27.30;;;8.27;;
14169;SDS011;63889;50.596;8.690;2022-11-11T03:55:08;21.45;;;8.65;;
14169;SDS011;63889;50.596;8.690;2022-11-11T03:57:34;33.78;;;9.98;;
14169;SDS011;63889;50.596;8.690;2022-11-11T04:00:02;22.80;;;9.27;;
14169;SDS011;63889;50.596;8.690;2022-11-11T04:02:28;20.33;;;8.93;;
14169;SDS011;63889;50.596;8.690;2022-11-11T04:05:12;36.70;;;9.38;;
14169;SDS011;63889;50.596;8.690;2022-11-11T04:07:56;40.88;;;10.73;;
14169;SDS011;63889;50.596;8.690;2022-11-11T04:10:40;38.97;;;9.70;;
14169;SDS011;63889;50.596;8.690;2022-11-11T04:13:06;37.88;;;9.25;;
14169;SDS011;63889;50.596;8.690;2022-11-11T04:15:50;28.50;;;8.55;;
14169;SDS011;63889;50.596;8.690;2022-11-11T04:18:30;25.83;;;9.10;;
14169;SDS011;63889;50.596;8.690;2022-11-11T04:21:14;36.08;;;8.18;;
14169;SDS011;63889;50.596;8.690;2022-11-11T04:23:59;20.90;;;8.02;;
14169;SDS011;63889;50.596;8.690;2022-11-11T04:26:25;15.20;;;6.85;;
14169;SDS011;63889;50.596;8.690;2022-11-11T04:28:50;19.08;;;7.22;;
14169;SDS011;63889;50.596;8.690;2022-11-11T04:31:34;19.15;;;7.85;;
14169;SDS011;63889;50.596;8.690;2022-11-11T04:34:00;18.77;;;7.45;;
14169;SDS011;63889;50.596;8.690;2022-11-11T04:36:25;35.78;;;8.55;;
14169;SDS011;63889;50.596;8.690;2022-11-11T04:38:51;28.25;;;7.97;;
14169;SDS011;63889;50.596;8.690;2022-11-11T04:41:35;40.80;;;9.00;;
14169;SDS011;63889;50.596;8.690;2022-11-11T04:44:00;51.22;;;9.65;;
14169;SDS011;63889;50.596;8.690;2022-11-11T04:46:45;46.92;;;8.52;;
14169;SDS011;63889;50.596;8.690;2022-11-11T04:49:10;38.92;;;8.05;;
14169;SDS011;63889;50.596;8.690;2022-11-11T04:51:36;30.38;;;8.88;;
14169;SDS011;63889;50.596;8.690;2022-11-11T04:54:20;33.28;;;9.13;;
14169;SDS011;63889;50.596;8.690;2022-11-11T04:56:45;19.80;;;8.48;;
14169;SDS011;63889;50.596;8.690;2022-11-11T04:59:14;30.83;;;8.77;;
14169;SDS011;63889;50.596;8.690;2022-11-11T05:01:40;31.02;;;8.05;;
14169;SDS011;63889;50.596;8.690;2022-11-11T05:04:25;32.92;;;8.63;;
14169;SDS011;63889;50.596;8.690;2022-11-11T05:06:50;28.33;;;8.23;;
14169;SDS011;63889;50.596;8.690;2022-11-11T05:09:34;23.58;;;8.23;;
14169;SDS011;63889;50.596;8.690;2022-11-11T05:12:00;18.27;;;8.07;;
14169;SDS011;63889;50.596;8.690;2022-11-11T05:14:25;17.42;;;7.82;;
14169;SDS011;63889;50.596;8.690;2022-11-11T05:17:09;20.80;;;7.32;;
14169;SDS011;63889;50.596;8.690;2022-11-11T05:19:53;32.95;;;8.13;;
14169;SDS011;63889;50.596;8.690;2022-11-11T05:22:38;25.58;;;7.80;;
14169;SDS011;63889;50.596;8.690;2022-11-11T05:25:05;43.65;;;8.82;;
14169;SDS011;63889;50.596;8.690;2022-11-11T05:27:52;28.13;;;8.40;;
14169;SDS011;63889;50.596;8.690;2022-11-11T05:30:18;50.75;;;8.93;;
14169;SDS011;63889;50.596;8.690;2022-11-11T05:32:45;29.17;;;8.55;;
14169;SDS011;63889;50.596;8.690;2022-11-11T05:35:11;33.42;;;9.10;;
14169;SDS011;63889;50.596;8.690;2022-11-11T05:37:37;19.13;;;7.80;;
14169;SDS011;63889;50.596;8.690;2022-11-11T05:40:04;24.45;;;7.65;;
14169;SDS011;63889;50.596;8.690;2022-11-11T05:42:30;20.35;;;7.13;;
14169;SDS011;63889;50.596;8.690;2022-11-11T05:44:56;19.00;;;6.82;;
14169;SDS011;63889;50.596;8.690;2022-11-11T05:47:21;21.75;;;7.85;;
14169;SDS011;63889;50.596;8.690;2022-11-11T05:49:47;25.02;;;8.13;;
14169;SDS011;63889;50.596;8.690;2022-11-11T05:52:13;19.23;;;8.07;;
14169;SDS011;63889;50.596;8.690;2022-11-11T05:54:40;24.63;;;7.72;;
14169;SDS011;63889;50.596;8.690;2022-11-11T05:57:06;18.17;;;8.15;;
14169;SDS011;63889;50.596;8.690;2022-11-11T05:59:31;17.75;;;6.85;;
14169;SDS011;63889;50.596;8.690;2022-11-11T06:01:57;17.77;;;8.20;;
14169;SDS011;63889;50.596;8.690;2022-11-11T06:04:23;19.27;;;8.00;;
14169;SDS011;63889;50.596;8.690;2022-11-11T06:06:48;24.73;;;8.65;;
14169;SDS011;63889;50.596;8.690;2022-11-11T06:09:14;23.55;;;7.75;;
14169;SDS011;63889;50.596;8.690;2022-11-11T06:11:39;26.02;;;9.00;;
14169;SDS011;63889;50.596;8.690;2022-11-11T06:14:05;25.80;;;7.95;;
14169;SDS011;63889;50.596;8.690;2022-11-11T06:16:31;27.73;;;8.18;;
14169;SDS011;63889;50.596;8.690;2022-11-11T06:18:56;25.85;;;8.25;;
14169;SDS011;63889;50.596;8.690;2022-11-11T06:21:23;19.65;;;7.88;;
14169;SDS011;63889;50.596;8.690;2022-11-11T06:23:48;30.40;;;8.73;;
14169;SDS011;63889;50.596;8.690;2022-11-11T06:26:14;20.40;;;7.43;;
14169;SDS011;63889;50.596;8.690;2022-11-11T06:28:51;22.40;;;8.77;;
14169;SDS011;63889;50.596;8.690;2022-11-11T06:31:18;35.42;;;8.73;;
14169;SDS011;63889;50.596;8.690;2022-11-11T06:33:45;18.15;;;7.55;;
14169;SDS011;63889;50.596;8.690;2022-11-11T06:36:12;18.30;;;7.32;;
14169;SDS011;63889;50.596;8.690;2022-11-11T06:38:39;23.58;;;7.15;;
14169;SDS011;63889;50.596;8.690;2022-11-11T06:41:05;16.35;;;7.43;;
14169;SDS011;63889;50.596;8.690;2022-11-11T06:43:32;21.83;;;7.38;;
14169;SDS011;63889;50.596;8.690;2022-11-11T06:45:57;18.65;;;7.15;;
14169;SDS011;63889;50.596;8.690;2022-11-11T06:48:24;21.77;;;8.30;;
14169;SDS011;63889;50.596;8.690;2022-11-11T06:50:51;21.30;;;8.32;;
14169;SDS011;63889;50.596;8.690;2022-11-11T06:53:17;22.38;;;7.70;;
14169;SDS011;63889;50.596;8.690;2022-11-11T06:55:44;23.25;;;7.40;;
14169;SDS011;63889;50.596;8.690;2022-11-11T06:58:14;24.85;;;8.32;;
14169;SDS011;63889;50.596;8.690;2022-11-11T07:00:44;22.42;;;7.82;;
14169;SDS011;63889;50.596;8.690;2022-11-11T07:03:11;23.10;;;8.05;;
14169;SDS011;63889;50.596;8.690;2022-11-11T07:05:38;18.48;;;7.07;;
14169;SDS011;63889;50.596;8.690;2022-11-11T07:08:05;25.73;;;7.95;;
14169;SDS011;63889;50.596;8.690;2022-11-11T07:10:33;18.38;;;7.38;;
14169;SDS011;63889;50.596;8.690;2022-11-11T07:13:00;19.65;;;7.70;;
14169;SDS011;63889;50.596;8.690;2022-11-11T07:15:26;13.93;;;5.95;;
14169;SDS011;63889;50.596;8.690;2022-11-11T07:17:52;15.95;;;6.35;;
14169;SDS011;63889;50.596;8.690;2022-11-11T07:20:17;13.52;;;6.20;;
14169;SDS011;63889;50.596;8.690;2022-11-11T07:22:43;15.23;;;6.63;;
14169;SDS011;63889;50.596;8.690;2022-11-11T07:25:08;18.42;;;6.97;;
14169;SDS011;63889;50.596;8.690;2022-11-11T07:27:37;19.55;;;6.70;;
14169;SDS011;63889;50.596;8.690;2022-11-11T07:30:04;18.40;;;7.47;;
14169;SDS011;63889;50.596;8.690;2022-11-11T07:32:30;28.10;;;7.05;;
14169;SDS011;63889;50.596;8.690;2022-11-11T07:34:56;25.08;;;7.72;;
14169;SDS011;63889;50.596;8.690;2022-11-11T07:37:22;16.95;;;6.78;;
14169;SDS011;63889;50.596;8.690;2022-11-11T07:39:47;17.67;;;8.38;;
14169;SDS011;63889;50.596;8.690;2022-11-11T07:42:13;19.48;;;7.00;;
14169;SDS011;63889;50.596;8.690;2022-11-11T07:44:39;20.13;;;7.35;;
14169;SDS011;63889;50.596;8.690;2022-11-11T07:47:05;15.88;;;6.82;;
14169;SDS011;63889;50.596;8.690;2022-11-11T07:49:31;19.75;;;6.75;;
14169;SDS011;63889;50.596;8.690;2022-11-11T07:51:57;16.08;;;6.53;;
14169;SDS011;63889;50.596;8.690;2022-11-11T07:54:22;17.45;;;6.60;;
14169;SDS011;63889;50.596;8.690;2022-11-11T07:56:48;17.42;;;7.65;;
14169;SDS011;63889;50.596;8.690;2022-11-11T07:59:13;16.13;;;7.63;;
14169;SDS011;63889;50.596;8.690;2022-11-11T08:01:39;26.05;;;7.90;;
14169;SDS011;63889;50.596;8.690;2022-11-11T08:04:05;16.13;;;7.07;;
14169;SDS011;63889;50.596;8.690;2022-11-11T08:06:30;19.02;;;7.03;;
14169;SDS011;63889;50.596;8.690;2022-11-11T08:08:56;16.73;;;7.15;;
14169;SDS011;63889;50.596;8.690;2022-11-11T08:11:21;22.90;;;8.30;;
14169;SDS011;63889;50.596;8.690;2022-11-11T08:14:05;18.30;;;8.38;;
14169;SDS011;63889;50.596;8.690;2022-11-11T08:16:31;17.58;;;7.55;;
14169;SDS011;63889;50.596;8.690;2022-11-11T08:18:56;32.22;;;9.07;;
14169;SDS011;63889;50.596;8.690;2022-11-11T08:21:22;19.73;;;8.40;;
14169;SDS011;63889;50.596;8.690;2022-11-11T08:23:49;32.70;;;7.90;;
14169;SDS011;63889;50.596;8.690;2022-11-11T08:26:15;43.03;;;9.13;;
14169;SDS011;63889;50.596;8.690;2022-11-11T08:28:42;23.55;;;7.97;;
14169;SDS011;63889;50.596;8.690;2022-11-11T08:31:07;21.42;;;7.00;;
14169;SDS011;63889;50.596;8.690;2022-11-11T08:33:34;13.15;;;6.53;;
14169;SDS011;63889;50.596;8.690;2022-11-11T08:35:59;15.82;;;7.68;;
14169;SDS011;63889;50.596;8.690;2022-11-11T08:38:26;15.55;;;6.75;;
14169;SDS011;63889;50.596;8.690;2022-11-11T08:40:52;21.92;;;7.50;;
14169;SDS011;63889;50.596;8.690;2022-11-11T08:43:18;17.90;;;7.82;;
14169;SDS011;63889;50.596;8.690;2022-11-11T08:45:44;16.63;;;7.00;;
14169;SDS011;63889;50.596;8.690;2022-11-11T08:48:10;17.25;;;7.68;;
14169;SDS011;63889;50.596;8.690;2022-11-11T08:50:39;16.35;;;6.90;;
14169;SDS011;63889;50.596;8.690;2022-11-11T08:53:06;20.50;;;7.88;;
14169;SDS011;63889;50.596;8.690;2022-11-11T08:55:33;22.45;;;8.23;;
14169;SDS011;63889;50.596;8.690;2022-11-11T08:58:01;23.40;;;8.95;;
14169;SDS011;63889;50.596;8.690;2022-11-11T09:00:29;17.15;;;7.10;;
14169;SDS011;63889;50.596;8.690;2022-11-11T09:02:59;17.08;;;7.93;;
14169;SDS011;63889;50.596;8.690;2022-11-11T09:05:28;15.75;;;7.72;;
14169;SDS011;63889;50.596;8.690;2022-11-11T09:07:54;19.83;;;8.68;;
14169;SDS011;63889;50.596;8.690;2022-11-11T09:10:20;20.48;;;8.38;;
14169;SDS011;63889;50.596;8.690;2022-11-11T09:12:46;19.67;;;9.02;;
14169;SDS011;63889;50.596;8.690;2022-11-11T09:15:12;22.17;;;9.23;;
14169;SDS011;63889;50.596;8.690;2022-11-11T09:17:37;25.45;;;8.68;;
14169;SDS011;63889;50.596;8.690;2022-11-11T09:20:03;24.05;;;8.77;;
14169;SDS011;63889;50.596;8.690;2022-11-11T09:22:29;19.63;;;9.30;;
14169;SDS011;63889;50.596;8.690;2022-11-11T09:24:54;19.38;;;8.13;;
14169;SDS011;63889;50.596;8.690;2022-11-11T09:27:20;27.85;;;9.40;;
14169;SDS011;63889;50.596;8.690;2022-11-11T09:29:46;21.42;;;8.85;;
14169;SDS011;63889;50.596;8.690;2022-11-11T09:32:11;23.98;;;9.75;;
14169;SDS011;63889;50.596;8.690;2022-11-11T09:34:37;22.02;;;9.20;;
14169;SDS011;63889;50.596;8.690;2022-11-11T09:37:03;23.42;;;9.38;;
14169;SDS011;63889;50.596;8.690;2022-11-11T09:39:28;19.75;;;7.90;;
14169;SDS011;63889;50.596;8.690;2022-11-11T09:50:04;21.15;;;8.38;;
14169;SDS011;63889;50.596;8.690;2022-11-11T09:52:37;23.55;;;9.77;;
14169;SDS011;63889;50.596;8.690;2022-11-11T09:55:05;18.95;;;7.88;;
14169;SDS011;63889;50.596;8.690;2022-11-11T10:00:20;17.75;;;7.85;;
14169;SDS011;63889;50.596;8.690;2022-11-11T10:02:50;20.63;;;8.40;;
14169;SDS011;63889;50.596;8.690;2022-11-11T10:05:25;22.17;;;9.02;;
14169;SDS011;63889;50.596;8.690;2022-11-11T10:13:16;19.90;;;8.93;;
14169;SDS011;63889;50.596;8.690;2022-11-11T10:15:56;17.13;;;8.35;;
14169;SDS011;63889;50.596;8.690;2022-11-11T10:18:34;22.85;;;9.00;;
14169;SDS011;63889;50.596;8.690;2022-11-11T10:21:25;26.50;;;9.18;;
14169;SDS011;63889;50.596;8.690;2022-11-11T10:24:11;23.70;;;10.13;;
14169;SDS011;63889;50.596;8.690;2022-11-11T10:26:47;23.42;;;9.90;;
14169;SDS011;63889;50.596;8.690;2022-11-11T10:29:14;19.55;;;9.52;;
14169;SDS011;63889;50.596;8.690;2022-11-11T10:31:43;24.25;;;10.38;;
14169;SDS011;63889;50.596;8.690;2022-11-11T10:34:13;31.98;;;11.07;;
14169;SDS011;63889;50.596;8.690;2022-11-11T10:36:43;28.90;;;10.70;;
14169;SDS011;63889;50.596;8.690;2022-11-11T10:39:13;28.80;;;11.02;;
14169;SDS011;63889;50.596;8.690;2022-11-11T10:41:48;24.52;;;10.60;;
14169;SDS011;63889;50.596;8.690;2022-11-11T10:44:19;24.48;;;10.60;;
14169;SDS011;63889;50.596;8.690;2022-11-11T10:46:57;29.75;;;11.38;;
14169;SDS011;63889;50.596;8.690;2022-11-11T10:49:23;24.67;;;9.45;;
14169;SDS011;63889;50.596;8.690;2022-11-11T10:51:54;28.27;;;9.88;;
14169;SDS011;63889;50.596;8.690;2022-11-11T10:55:07;24.65;;;10.18;;
14169;SDS011;63889;50.596;8.690;2022-11-11T10:57:28;27.40;;;10.15;;
14169;SDS011;63889;50.596;8.690;2022-11-11T10:59:57;23.15;;;10.30;;
14169;SDS011;63889;50.596;8.690;2022-11-11T11:02:40;20.55;;;9.45;;
14169;SDS011;63889;50.596;8.690;2022-11-11T11:05:35;23.67;;;9.70;;
14169;SDS011;63889;50.596;8.690;2022-11-11T11:08:16;25.50;;;10.35;;
14169;SDS011;63889;50.596;8.690;2022-11-11T11:13:30;23.55;;;9.70;;
14169;SDS011;63889;50.596;8.690;2022-11-11T11:16:13;24.48;;;9.52;;
14169;SDS011;63889;50.596;8.690;2022-11-11T11:21:48;26.20;;;9.07;;
14169;SDS011;63889;50.596;8.690;2022-11-11T11:24:29;23.73;;;8.68;;
14169;SDS011;63889;50.596;8.690;2022-11-11T11:26:57;24.60;;;9.82;;
14169;SDS011;63889;50.596;8.690;2022-11-11T11:29:25;24.38;;;8.75;;
14169;SDS011;63889;50.596;8.690;2022-11-11T11:31:51;21.17;;;8.77;;
14169;SDS011;63889;50.596;8.690;2022-11-11T11:34:18;21.08;;;8.73;;
14169;SDS011;63889;50.596;8.690;2022-11-11T11:36:46;21.50;;;8.77;;
14169;SDS011;63889;50.596;8.690;2022-11-11T11:39:34;29.23;;;9.68;;
14169;SDS011;63889;50.596;8.690;2022-11-11T11:42:00;20.45;;;8.35;;
14169;SDS011;63889;50.596;8.690;2022-11-11T11:44:27;19.73;;;9.20;;
14169;SDS011;63889;50.596;8.690;2022-11-11T11:47:19;19.70;;;8.93;;
14169;SDS011;63889;50.596;8.690;2022-11-11T11:53:17;19.05;;;8.68;;
14169;SDS011;63889;50.596;8.690;2022-11-11T11:55:54;20.25;;;8.02;;
14169;SDS011;63889;50.596;8.690;2022-11-11T12:07:11;26.25;;;10.75;;
14169;SDS011;63889;50.596;8.690;2022-11-11T12:12:46;22.27;;;9.35;;
14169;SDS011;63889;50.596;8.690;2022-11-11T12:15:23;29.30;;;9.57;;
14169;SDS011;63889;50.596;8.690;2022-11-11T12:20:50;21.33;;;8.60;;
14169;SDS011;63889;50.596;8.690;2022-11-11T12:29:03;25.35;;;10.07;;
14169;SDS011;63889;50.596;8.690;2022-11-11T12:34:03;24.38;;;9.05;;
14169;SDS011;63889;50.596;8.690;2022-11-11T12:44:54;28.92;;;10.35;;
14169;SDS011;63889;50.596;8.690;2022-11-11T12:53:31;29.27;;;10.75;;
14169;SDS011;63889;50.596;8.690;2022-11-11T12:56:20;34.03;;;12.63;;
14169;SDS011;63889;50.596;8.690;2022-11-11T12:59:05;31.08;;;11.80;;
14169;SDS011;63889;50.596;8.690;2022-11-11T13:04:34;32.90;;;11.88;;
14169;SDS011;63889;50.596;8.690;2022-11-11T13:08:05;28.52;;;12.27;;
14169;SDS011;63889;50.596;8.690;2022-11-11T13:13:16;27.73;;;11.48;;
14169;SDS011;63889;50.596;8.690;2022-11-11T13:16:05;31.10;;;12.23;;
14169;SDS011;63889;50.596;8.690;2022-11-11T13:18:41;31.98;;;11.82;;
14169;SDS011;63889;50.596;8.690;2022-11-11T13:21:22;33.60;;;12.30;;
14169;SDS011;63889;50.596;8.690;2022-11-11T13:24:11;32.45;;;11.60;;
14169;SDS011;63889;50.596;8.690;2022-11-11T13:26:41;33.40;;;14.00;;
14169;SDS011;63889;50.596;8.690;2022-11-11T13:29:24;39.20;;;13.88;;
14169;SDS011;63889;50.596;8.690;2022-11-11T13:32:10;38.03;;;12.52;;
14169;SDS011;63889;50.596;8.690;2022-11-11T13:34:38;43.78;;;14.65;;
14169;SDS011;63889;50.596;8.690;2022-11-11T13:37:06;46.83;;;15.18;;
14169;SDS011;63889;50.596;8.690;2022-11-11T13:39:43;45.90;;;15.10;;
14169;SDS011;63889;50.596;8.690;2022-11-11T13:42:12;47.13;;;14.43;;
14169;SDS011;63889;50.596;8.690;2022-11-11T13:44:48;38.55;;;13.52;;
14169;SDS011;63889;50.596;8.690;2022-11-11T13:47:26;40.88;;;13.10;;
14169;SDS011;63889;50.596;8.690;2022-11-11T13:49:59;40.03;;;14.18;;
14169;SDS011;63889;50.596;8.690;2022-11-11T13:52:36;40.58;;;13.85;;
14169;SDS011;63889;50.596;8.690;2022-11-11T13:55:09;39.00;;;13.35;;
14169;SDS011;63889;50.596;8.690;2022-11-11T13:57:50;37.45;;;12.80;;
14169;SDS011;63889;50.596;8.690;2022-11-11T14:02:42;35.08;;;12.68;;
14169;SDS011;63889;50.596;8.690;2022-11-11T14:10:09;45.00;;;13.70;;
14169;SDS011;63889;50.596;8.690;2022-11-11T14:13:34;42.38;;;13.57;;
14169;SDS011;63889;50.596;8.690;2022-11-11T14:15:47;32.80;;;12.95;;
14169;SDS011;63889;50.596;8.690;2022-11-11T14:20:43;39.67;;;12.40;;
14169;SDS011;63889;50.596;8.690;2022-11-11T14:25:46;38.45;;;13.35;;
14169;SDS011;63889;50.596;8.690;2022-11-11T14:28:25;36.47;;;12.80;;
14169;SDS011;63889;50.596;8.690;2022-11-11T14:30:54;37.70;;;11.93;;
14169;SDS011;63889;50.596;8.690;2022-11-11T14:33:35;36.55;;;12.52;;
14169;SDS011;63889;50.596;8.690;2022-11-11T14:36:21;36.53;;;14.07;;
14169;SDS011;63889;50.596;8.690;2022-11-11T14:39:21;41.50;;;13.38;;
14169;SDS011;63889;50.596;8.690;2022-11-11T14:41:57;41.30;;;14.23;;
14169;SDS011;63889;50.596;8.690;2022-11-11T14:49:52;39.95;;;13.77;;
14169;SDS011;63889;50.596;8.690;2022-11-11T14:52:31;42.30;;;14.00;;
14169;SDS011;63889;50.596;8.690;2022-11-11T14:57:49;50.65;;;14.07;;
14169;SDS011;63889;50.596;8.690;2022-11-11T15:00:28;36.63;;;12.02;;
14169;SDS011;63889;50.596;8.690;2022-11-11T15:05:54;38.92;;;12.43;;
14169;SDS011;63889;50.596;8.690;2022-11-11T15:16:54;38.45;;;14.43;;
14169;SDS011;63889;50.596;8.690;2022-11-11T15:25:13;57.45;;;14.25;;
14169;SDS011;63889;50.596;8.690;2022-11-11T15:30:53;54.90;;;13.50;;
14169;SDS011;63889;50.596;8.690;2022-11-11T15:36:12;44.10;;;13.77;;
14169;SDS011;63889;50.596;8.690;2022-11-11T15:38:54;48.70;;;14.30;;
14169;SDS011;63889;50.596;8.690;2022-11-11T15:41:23;47.00;;;14.45;;
14169;SDS011;63889;50.596;8.690;2022-11-11T15:43:51;48.10;;;14.82;;
14169;SDS011;63889;50.596;8.690;2022-11-11T15:46:23;48.75;;;14.13;;
14169;SDS011;63889;50.596;8.690;2022-11-11T15:48:53;37.30;;;12.52;;
14169;SDS011;63889;50.596;8.690;2022-11-11T15:51:31;56.97;;;18.35;;
14169;SDS011;63889;50.596;8.690;2022-11-11T15:56:46;55.15;;;14.93;;
14169;SDS011;63889;50.596;8.690;2022-11-11T15:59:22;48.25;;;15.43;;
14169;SDS011;63889;50.596;8.690;2022-11-11T16:01:49;51.40;;;14.98;;
14169;SDS011;63889;50.596;8.690;2022-11-11T16:04:19;45.42;;;13.48;;
14169;SDS011;63889;50.596;8.690;2022-11-11T16:06:47;59.30;;;16.00;;
14169;SDS011;63889;50.596;8.690;2022-11-11T16:09:14;49.33;;;14.65;;
14169;SDS011;63889;50.596;8.690;2022-11-11T16:11:47;53.67;;;15.93;;
14169;SDS011;63889;50.596;8.690;2022-11-11T16:14:20;46.65;;;14.35;;
14169;SDS011;63889;50.596;8.690;2022-11-11T16:16:53;56.08;;;14.73;;
14169;SDS011;63889;50.596;8.690;2022-11-11T16:19:30;56.65;;;14.82;;
14169;SDS011;63889;50.596;8.690;2022-11-11T16:24:35;56.67;;;15.75;;
14169;SDS011;63889;50.596;8.690;2022-11-11T16:27:03;53.22;;;13.93;;
14169;SDS011;63889;50.596;8.690;2022-11-11T16:29:37;62.05;;;15.85;;
14169;SDS011;63889;50.596;8.690;2022-11-11T16:32:18;64.50;;;15.38;;
14169;SDS011;63889;50.596;8.690;2022-11-11T16:34:56;54.50;;;16.55;;
14169;SDS011;63889;50.596;8.690;2022-11-11T16:37:22;55.33;;;16.20;;
14169;SDS011;63889;50.596;8.690;2022-11-11T16:39:47;61.60;;;14.90;;
14169;SDS011;63889;50.596;8.690;2022-11-11T16:42:20;56.88;;;17.15;;
14169;SDS011;63889;50.596;8.690;2022-11-11T16:45:00;45.47;;;14.98;;
14169;SDS011;63889;50.596;8.690;2022-11-11T16:50:01;73.32;;;15.93;;
14169;SDS011;63889;50.596;8.690;2022-11-11T16:52:40;52.05;;;15.40;;
14169;SDS011;63889;50.596;8.690;2022-11-11T16:55:10;49.03;;;14.50;;
14169;SDS011;63889;50.596;8.690;2022-11-11T16:57:44;73.22;;;15.25;;
14169;SDS011;63889;50.596;8.690;2022-11-11T17:00:11;60.53;;;13.60;;
14169;SDS011;63889;50.596;8.690;2022-11-11T17:02:40;49.47;;;12.30;;
14169;SDS011;63889;50.596;8.690;2022-11-11T17:05:05;63.72;;;14.18;;